Time;durP1;ratioP1;P1;durP2;ratioP2;P2;SDS_P1;SDS_P2;PMS_P1;PMS_P2;Temp;Humidity;BMP_temperature;BMP_pressure;BME280_temperature;BME280_humidity;BME280_pressure;Samples;Min_cycle;Max_cycle;Signal;HPM_P1;HPM_P2
2021/05/10 00:01:44;;;;;;;8.25;2.65;;;;;;;16.82;69.47;100638.69;5074824;28;20043;-74
2021/05/10 00:04:48;;;;;;;3.33;2.30;;;;;;;16.95;69.58;100645.47;5073331;28;20422;-75
2021/05/10 00:07:53;;;;;;;5.88;2.38;;;;;;;16.97;69.68;100648.88;5074297;28;20043;-75
2021/05/10 00:10:58;;;;;;;7.47;2.60;;;;;;;16.87;69.21;100640.91;5074671;28;20051;-74
2021/05/10 00:14:06;;;;;;;6.90;2.75;;;;;;;16.98;69.57;100654.16;5068353;28;20047;-73
2021/05/10 00:17:11;;;;;;;4.63;2.25;;;;;;;16.99;69.06;100650.41;5073854;28;20047;-75
2021/05/10 00:20:15;;;;;;;6.18;2.88;;;;;;;16.74;69.38;100649.53;5073454;28;20067;-75
2021/05/10 00:23:19;;;;;;;8.20;2.63;;;;;;;16.52;70.88;100650.16;5071389;28;20067;-75
2021/05/10 00:26:24;;;;;;;5.63;2.70;;;;;;;16.47;70.79;100646.19;5074432;28;20047;-73
2021/05/10 00:29:28;;;;;;;14.25;3.13;;;;;;;16.43;70.82;100655.69;5072526;28;20097;-73
2021/05/10 00:32:32;;;;;;;6.22;2.95;;;;;;;16.35;71.27;100655.66;5074075;28;20052;-74
2021/05/10 00:35:37;;;;;;;8.13;3.33;;;;;;;16.38;71.26;100644.50;5074095;28;20047;-73
2021/05/10 00:38:41;;;;;;;6.30;2.95;;;;;;;16.47;70.86;100647.06;5072136;28;20048;-74
2021/05/10 00:41:45;;;;;;;6.28;2.72;;;;;;;16.50;70.86;100652.16;5072495;28;20052;-73
2021/05/10 00:44:50;;;;;;;7.63;2.80;;;;;;;16.42;71.38;100646.69;5073129;28;20375;-75
2021/05/10 00:47:54;;;;;;;5.88;2.78;;;;;;;16.37;71.16;100645.53;5073035;28;20051;-74
2021/05/10 00:50:58;;;;;;;7.43;2.70;;;;;;;16.39;71.10;100649.75;5073685;28;20055;-76
2021/05/10 00:54:03;;;;;;;6.03;2.88;;;;;;;16.44;71.39;100649.25;5071797;28;20051;-75
2021/05/10 00:57:07;;;;;;;5.82;3.03;;;;;;;16.48;71.54;100650.63;5072448;28;20043;-74
2021/05/10 01:00:13;;;;;;;6.35;3.08;;;;;;;16.49;71.60;100652.34;5072788;28;20051;-75
2021/05/10 01:03:18;;;;;;;4.82;2.60;;;;;;;16.46;71.68;100637.25;5071292;28;20052;-76
2021/05/10 01:06:22;;;;;;;6.22;2.78;;;;;;;16.42;71.86;100633.16;5068395;28;20047;-74
2021/05/10 01:09:27;;;;;;;5.35;2.60;;;;;;;16.39;71.55;100628.09;5072429;28;20060;-76
2021/05/10 01:12:31;;;;;;;4.38;2.90;;;;;;;16.36;71.77;100622.16;5072149;28;20059;-75
2021/05/10 01:15:35;;;;;;;7.10;3.30;;;;;;;16.31;71.66;100610.94;5073319;28;20051;-75
2021/05/10 01:18:41;;;;;;;6.30;2.90;;;;;;;16.19;72.54;100613.97;5070259;28;20068;-75
2021/05/10 01:21:48;;;;;;;9.15;2.78;;;;;;;16.13;72.31;100608.34;5072860;28;20047;-76
2021/05/10 01:24:53;;;;;;;7.60;3.10;;;;;;;16.18;72.23;100606.84;5072527;28;20048;-76
2021/05/10 01:27:58;;;;;;;6.78;3.28;;;;;;;16.10;72.98;100603.25;5073091;28;20047;-75
2021/05/10 01:31:02;;;;;;;7.32;3.13;;;;;;;15.94;74.00;100592.38;5071283;28;20513;-74
2021/05/10 01:34:07;;;;;;;5.38;3.00;;;;;;;15.84;74.00;100578.13;5071834;28;20040;-74
2021/05/10 01:37:11;;;;;;;4.13;2.58;;;;;;;15.79;73.78;100594.84;5071876;28;20110;-74
2021/05/10 01:40:16;;;;;;;7.13;2.70;;;;;;;15.73;74.47;100606.31;5072805;28;20510;-74
2021/05/10 01:43:21;;;;;;;8.65;2.78;;;;;;;15.67;74.92;100590.75;5073010;28;20502;-74
2021/05/10 01:46:25;;;;;;;6.65;2.72;;;;;;;15.63;74.58;100579.38;5070526;28;20043;-74
2021/05/10 01:49:31;;;;;;;4.50;2.70;;;;;;;15.55;74.84;100570.38;5062338;28;20144;-72
2021/05/10 01:52:40;;;;;;;5.30;2.60;;;;;;;15.61;75.26;100561.59;5002056;28;20048;-73
2021/05/10 01:55:26;;;;;;;5.85;3.22;;;;;;;15.63;75.34;100563.13;4988073;28;20045;-73
2021/05/10 01:58:30;;;;;;;4.82;2.95;;;;;;;15.71;74.74;100566.88;4996671;28;20449;-74
2021/05/10 02:01:34;;;;;;;5.60;3.22;;;;;;;15.67;74.46;100552.84;4999755;28;20053;-75
2021/05/10 02:05:11;;;;;;;6.35;3.30;;;;;;;15.60;75.13;100541.81;4989423;28;20614;-74
2021/05/10 02:08:16;;;;;;;9.70;3.47;;;;;;;15.46;75.41;100533.44;4999399;28;20045;-76
2021/05/10 02:11:21;;;;;;;5.88;2.70;;;;;;;15.21;75.67;100537.03;4989607;28;20041;-75
2021/05/10 02:14:25;;;;;;;8.95;3.15;;;;;;;15.26;75.78;100527.41;4999686;28;20155;-74
2021/05/10 02:17:29;;;;;;;4.38;2.92;;;;;;;15.26;75.51;100526.53;4999303;28;20132;-74
2021/05/10 02:20:35;;;;;;;8.75;3.95;;;;;;;15.17;75.29;100532.94;4999442;28;20045;-74
2021/05/10 02:23:39;;;;;;;7.97;3.95;;;;;;;15.08;75.73;100528.47;5000202;28;20045;-75
2021/05/10 02:26:43;;;;;;;8.50;3.85;;;;;;;15.02;76.05;100516.44;5003595;28;20045;-75
2021/05/10 02:29:48;;;;;;;13.45;4.80;;;;;;;14.97;76.04;100533.16;5043540;28;20048;-73
2021/05/10 02:32:53;;;;;;;8.05;4.57;;;;;;;14.90;75.67;100542.03;5071771;28;20067;-74
2021/05/10 02:35:57;;;;;;;22.02;4.88;;;;;;;14.76;75.13;100551.53;5072392;28;20063;-76
2021/05/10 02:39:02;;;;;;;7.30;4.45;;;;;;;14.90;74.84;100548.31;5072149;28;20043;-76
2021/05/10 02:42:06;;;;;;;8.18;4.30;;;;;;;14.96;74.34;100547.66;5086433;28;20443;-75
2021/05/10 02:45:12;;;;;;;9.98;4.13;;;;;;;15.02;74.56;100550.72;5095693;28;20047;-76
2021/05/10 02:48:17;;;;;;;7.15;3.83;;;;;;;14.94;74.99;100552.38;5096327;28;20055;-76
2021/05/10 02:51:21;;;;;;;5.50;3.53;;;;;;;14.89;75.37;100546.59;5093328;28;20510;-75
2021/05/10 02:54:45;;;;;;;;;;;;;;;14.77;75.84;100549.69;5094507;28;20047;-76
2021/05/10 02:57:50;;;;;;;;;;;;;;;14.70;76.87;100535.13;5095731;28;19916;-74
2021/05/10 03:00:54;;;;;;;6.15;3.55;;;;;;;14.75;76.69;100547.16;5095947;28;19924;-73
2021/05/10 03:03:59;;;;;;;8.02;3.58;;;;;;;14.64;77.50;100550.09;5093589;28;20047;-74
2021/05/10 03:07:03;;;;;;;8.32;3.85;;;;;;;14.49;78.46;100551.69;5094290;28;20039;-74
2021/05/10 03:10:10;;;;;;;6.60;3.70;;;;;;;14.42;78.47;100561.38;5094725;28;20395;-76
2021/05/10 03:13:15;;;;;;;5.80;3.78;;;;;;;14.41;78.85;100562.41;5094373;28;20055;-73
2021/05/10 03:16:21;;;;;;;6.75;3.90;;;;;;;14.45;79.04;100557.50;5094045;28;20055;-76
2021/05/10 03:19:25;;;;;;;6.53;3.65;;;;;;;14.54;78.62;100562.84;5094528;28;20055;-76
2021/05/10 03:22:30;;;;;;;8.25;3.85;;;;;;;14.50;78.34;100572.25;5094715;28;20070;-74
2021/05/10 03:25:34;;;;;;;8.38;3.83;;;;;;;14.57;78.63;100581.44;5095353;28;20051;-76
2021/05/10 03:28:39;;;;;;;9.10;3.72;;;;;;;14.61;78.23;100584.69;5093157;28;20047;-75
2021/05/10 03:31:43;;;;;;;6.43;3.65;;;;;;;14.62;77.58;100592.63;5093723;28;20162;-75
2021/05/10 03:34:47;;;;;;;8.52;3.72;;;;;;;14.62;77.74;100592.63;5094252;28;20394;-75
2021/05/10 03:37:52;;;;;;;7.40;3.35;;;;;;;14.51;77.65;100584.78;5095024;28;20039;-75
2021/05/10 03:40:56;;;;;;;8.35;4.10;;;;;;;14.43;78.71;100587.38;5094650;28;20718;-74
2021/05/10 03:44:00;;;;;;;8.07;3.90;;;;;;;14.46;78.31;100591.63;5095020;28;20043;-75
2021/05/10 03:47:05;;;;;;;9.55;3.55;;;;;;;14.47;77.90;100602.28;5093440;28;20055;-75
2021/05/10 03:50:13;;;;;;;6.05;3.80;;;;;;;14.39;78.14;100601.34;5092708;28;20502;-75
2021/05/10 03:53:19;;;;;;;6.35;3.70;;;;;;;14.45;78.02;100614.22;5095040;28;20055;-74
2021/05/10 03:56:23;;;;;;;6.32;3.80;;;;;;;14.44;77.85;100616.13;5093630;28;20051;-75
2021/05/10 03:59:28;;;;;;;7.80;4.25;;;;;;;14.47;78.17;100632.00;5093374;28;20063;-76
2021/05/10 04:02:33;;;;;;;6.55;3.53;;;;;;;14.51;78.27;100640.66;5093889;28;20130;-73
2021/05/10 04:09:50;;;;;;;8.32;4.10;;;;;;;14.32;78.98;100644.31;5092792;28;20043;-76
2021/05/10 04:15:41;;;;;;;5.45;3.58;;;;;;;14.41;78.43;100654.22;5092176;28;20395;-75
2021/05/10 04:18:45;;;;;;;6.72;4.15;;;;;;;14.51;78.44;100656.84;5092970;28;20394;-74
2021/05/10 04:21:49;;;;;;;9.63;4.20;;;;;;;14.65;78.06;100657.19;5093087;28;20047;-73
2021/05/10 04:24:54;;;;;;;10.63;3.90;;;;;;;14.72;77.78;100655.56;5093591;28;20507;-74
2021/05/10 04:27:58;;;;;;;5.97;3.80;;;;;;;14.77;77.80;100663.19;5094470;28;20110;-75
2021/05/10 04:31:03;;;;;;;7.60;3.72;;;;;;;14.88;77.18;100653.03;5084884;28;20052;-74
2021/05/10 04:34:07;;;;;;;5.60;3.50;;;;;;;15.18;76.13;100654.47;5091995;28;20058;-75
2021/05/10 04:37:11;;;;;;;8.25;3.45;;;;;;;15.46;75.37;100653.34;5092273;28;20035;-74
2021/05/10 04:40:16;;;;;;;4.95;3.70;;;;;;;15.62;74.27;100647.19;5093451;28;20544;-75
2021/05/10 04:43:22;;;;;;;14.73;3.97;;;;;;;15.83;73.47;100642.22;5091401;28;20055;-75
2021/05/10 04:46:26;;;;;;;6.38;4.07;;;;;;;16.09;71.90;100643.06;5091480;28;20043;-74
2021/05/10 04:49:30;;;;;;;9.13;4.03;;;;;;;16.39;70.64;100640.78;5092083;28;20386;-73
2021/05/10 04:52:34;;;;;;;8.90;4.43;;;;;;;16.88;68.78;100629.91;5093165;28;20047;-75
2021/05/10 04:55:39;;;;;;;6.75;3.47;;;;;;;17.48;66.55;100629.50;5094039;28;20494;-74
2021/05/10 04:58:44;;;;;;;6.40;3.53;;;;;;;18.25;63.70;100636.94;5093408;28;20055;-76
2021/05/10 05:01:48;;;;;;;10.95;4.28;;;;;;;18.99;61.54;100639.06;5093674;28;20130;-73
2021/05/10 05:04:52;;;;;;;19.48;13.18;;;;;;;19.73;59.14;100640.94;5094223;28;20050;-76
2021/05/10 05:07:57;;;;;;;9.55;5.68;;;;;;;20.35;57.49;100633.25;5094262;28;20406;-73
2021/05/10 05:11:02;;;;;;;9.57;5.22;;;;;;;20.93;54.86;100632.25;5094047;28;20114;-75
2021/05/10 05:14:07;;;;;;;9.90;3.58;;;;;;;21.60;53.09;100637.25;5092325;28;20051;-75
2021/05/10 05:17:11;;;;;;;9.38;3.05;;;;;;;22.27;51.11;100630.09;5093075;28;20055;-76
2021/05/10 05:20:18;;;;;;;7.30;2.78;;;;;;;22.57;49.66;100641.59;5092746;28;20166;-75
2021/05/10 05:23:27;;;;;;;10.18;3.10;;;;;;;23.18;48.51;100635.03;5093629;28;20363;-76
2021/05/10 05:26:31;;;;;;;9.45;3.13;;;;;;;23.80;47.10;100620.91;5094329;28;20059;-74
2021/05/10 05:29:35;;;;;;;8.10;3.50;;;;;;;24.39;46.12;100625.41;5093696;28;20071;-76
2021/05/10 05:32:40;;;;;;;6.85;3.40;;;;;;;24.57;45.23;100633.75;5091613;28;20059;-73
2021/05/10 05:35:44;;;;;;;6.22;3.42;;;;;;;24.86;44.68;100627.69;5092476;28;20047;-76
2021/05/10 05:38:48;;;;;;;10.50;3.40;;;;;;;24.77;44.39;100631.78;5091900;28;20051;-73
2021/05/10 05:41:53;;;;;;;8.52;2.85;;;;;;;24.89;44.05;100645.63;5075186;28;20514;-76
2021/05/10 05:44:57;;;;;;;9.50;3.28;;;;;;;24.75;44.48;100652.25;5093151;28;20382;-74
2021/05/10 05:48:07;;;;;;;9.15;3.40;;;;;;;25.01;43.91;100658.44;5086365;28;20051;-76
2021/05/10 05:51:12;;;;;;;5.57;3.30;;;;;;;25.16;43.41;100667.22;5062191;28;20051;-77
2021/05/10 05:54:17;;;;;;;6.28;3.00;;;;;;;25.51;41.93;100669.53;5093320;28;20051;-78
2021/05/10 05:57:22;;;;;;;13.02;3.80;;;;;;;25.34;40.93;100662.88;5093115;28;20051;-76
2021/05/10 06:00:28;;;;;;;10.27;3.65;;;;;;;26.19;38.72;100674.00;5081103;28;20043;-76
2021/05/10 06:03:32;;;;;;;6.45;3.13;;;;;;;27.08;36.72;100678.81;5093466;28;20070;-77
2021/05/10 06:06:36;;;;;;;8.55;3.13;;;;;;;27.48;35.07;100673.56;5093149;28;20039;-77
2021/05/10 06:09:41;;;;;;;6.93;3.25;;;;;;;28.50;33.54;100689.53;5089480;28;20038;-76
2021/05/10 06:12:48;;;;;;;8.07;3.25;;;;;;;30.74;30.83;100685.69;5086588;28;20039;-76
2021/05/10 06:15:53;;;;;;;15.40;3.20;;;;;;;31.25;30.47;100692.69;5086814;28;20039;-77
2021/05/10 06:18:58;;;;;;;8.50;3.25;;;;;;;32.21;29.32;100707.41;5088238;28;20439;-77
2021/05/10 06:22:03;;;;;;;16.67;3.55;;;;;;;34.07;27.47;100701.63;5086488;28;20047;-76
2021/05/10 06:25:09;;;;;;;10.35;3.10;;;;;;;33.35;27.53;100699.88;5090274;28;20043;-77
2021/05/10 06:28:14;;;;;;;6.75;3.00;;;;;;;33.62;27.28;100694.94;5093051;28;20067;-78
2021/05/10 06:31:18;;;;;;;4.60;2.45;;;;;;;34.57;26.10;100698.72;5093612;28;20055;-75
2021/05/10 06:34:23;;;;;;;9.77;2.80;;;;;;;35.95;23.76;100689.22;5088975;28;20115;-78
2021/05/10 06:37:30;;;;;;;5.95;2.63;;;;;;;35.78;24.05;100692.41;5090883;28;20051;-74
2021/05/10 06:40:34;;;;;;;8.52;2.90;;;;;;;35.98;23.93;100683.84;5076922;28;20051;-74
2021/05/10 06:43:39;;;;;;;12.48;3.80;;;;;;;36.88;23.75;100678.38;5089238;28;20051;-75
2021/05/10 06:46:43;;;;;;;11.30;3.42;;;;;;;38.00;22.52;100673.56;5092527;28;20051;-74
2021/05/10 06:49:47;;;;;;;8.77;3.25;;;;;;;37.79;22.95;100672.25;5092590;28;20047;-77
2021/05/10 06:52:52;;;;;;;11.77;2.72;;;;;;;37.77;22.24;100654.91;5066552;28;20170;-77
2021/05/10 06:55:57;;;;;;;10.48;2.72;;;;;;;38.02;22.46;100660.09;5089587;28;20086;-78
2021/05/10 06:59:01;;;;;;;9.23;2.83;;;;;;;35.83;23.78;100670.88;5089355;28;20051;-77
2021/05/10 07:02:06;;;;;;;13.52;3.28;;;;;;;37.48;22.47;100663.50;5076783;28;20047;-82
2021/05/10 07:05:11;;;;;;;13.57;6.90;;;;;;;37.95;21.00;100658.81;5091221;28;20087;-78
2021/05/10 07:08:17;;;;;;;9.18;4.22;;;;;;;38.32;21.26;100667.91;5090726;28;20530;-78
2021/05/10 07:11:22;;;;;;;6.38;3.00;;;;;;;38.59;20.72;100666.28;5089847;28;20055;-78
2021/05/10 07:14:26;;;;;;;10.68;3.60;;;;;;;38.45;21.04;100669.06;5090470;28;20043;-74
2021/05/10 07:17:31;;;;;;;14.88;3.90;;;;;;;37.45;22.15;100666.94;5091260;28;20047;-74
2021/05/10 07:20:37;;;;;;;22.85;4.68;;;;;;;39.77;20.18;100655.66;5090793;28;20043;-76
2021/05/10 07:23:41;;;;;;;9.48;4.60;;;;;;;37.91;21.45;100658.59;5088621;28;20051;-77
2021/05/10 07:26:46;;;;;;;8.98;3.70;;;;;;;36.42;22.36;100636.97;5093044;28;20039;-77
2021/05/10 07:29:50;;;;;;;9.75;4.47;;;;;;;36.63;22.98;100632.00;5093072;28;20051;-77
2021/05/10 07:32:55;;;;;;;12.68;3.92;;;;;;;39.78;19.92;100640.47;5093787;28;20395;-77
2021/05/10 07:36:00;;;;;;;4.78;3.10;;;;;;;36.74;21.89;100647.50;5093998;28;20046;-73
2021/05/10 07:39:05;;;;;;;6.90;3.22;;;;;;;37.35;22.25;100636.28;5094323;28;20388;-75
2021/05/10 07:42:10;;;;;;;9.60;3.70;;;;;;;39.05;20.68;100622.00;5094769;28;20051;-75
2021/05/10 07:45:14;;;;;;;9.73;3.13;;;;;;;40.77;19.20;100618.19;5095199;28;20408;-73
2021/05/10 07:48:18;;;;;;;11.70;3.70;;;;;;;40.08;20.12;100601.09;5093385;28;20371;-75
2021/05/10 07:51:23;;;;;;;3.90;2.85;;;;;;;40.59;19.83;100585.56;5094134;28;20059;-73
2021/05/10 07:54:27;;;;;;;7.57;4.40;;;;;;;36.21;22.98;100582.44;5094275;28;20066;-78
2021/05/10 07:57:31;;;;;;;8.48;4.07;;;;;;;35.27;24.20;100580.28;5092097;28;20082;-77
2021/05/10 08:00:37;;;;;;;15.02;4.13;;;;;;;35.31;24.12;100581.34;5092914;28;20359;-77
2021/05/10 08:03:43;;;;;;;8.27;4.15;;;;;;;36.90;23.14;100580.94;5093439;28;20055;-73
2021/05/10 08:06:47;;;;;;;8.73;4.20;;;;;;;37.58;22.42;100582.09;5094078;28;20094;-74
2021/05/10 08:09:53;;;;;;;6.35;3.72;;;;;;;37.23;22.37;100579.06;5094797;28;20047;-73
2021/05/10 08:12:57;;;;;;;9.23;3.83;;;;;;;38.09;21.68;100570.78;5094459;28;20067;-74
2021/05/10 08:16:02;;;;;;;13.52;4.68;;;;;;;37.66;22.46;100578.59;5095449;28;20051;-76
2021/05/10 08:19:06;;;;;;;9.65;4.13;;;;;;;37.93;22.12;100579.78;5071444;28;20047;-74
2021/05/10 08:22:11;;;;;;;8.10;3.85;;;;;;;36.49;22.94;100586.31;5087217;28;20044;-76
2021/05/10 08:25:15;;;;;;;7.82;4.05;;;;;;;34.25;25.36;100587.56;5093571;28;20047;-76
2021/05/10 08:28:20;;;;;;;8.90;4.03;;;;;;;32.96;27.64;100585.41;5090837;28;20123;-75
2021/05/10 08:31:25;;;;;;;6.15;4.57;;;;;;;29.04;32.98;100591.41;5094348;28;20494;-79
2021/05/10 08:34:29;;;;;;;7.68;4.95;;;;;;;27.29;36.41;100586.44;5076062;28;20099;-78
2021/05/10 08:37:33;;;;;;;8.63;4.18;;;;;;;27.30;35.79;100597.25;5091428;28;20047;-78
2021/05/10 08:40:38;;;;;;;10.32;4.53;;;;;;;27.26;36.02;100596.03;5091756;28;20051;-77
2021/05/10 08:43:42;;;;;;;5.35;3.97;;;;;;;26.75;36.06;100591.09;5091591;28;20048;-78
2021/05/10 08:46:46;;;;;;;11.88;4.30;;;;;;;25.81;38.15;100602.63;5093130;28;20051;-77
2021/05/10 08:49:51;;;;;;;11.93;5.05;;;;;;;25.48;39.62;100587.53;5092796;28;20402;-75
2021/05/10 08:52:55;;;;;;;13.90;4.85;;;;;;;24.98;39.79;100579.25;5090344;28;20063;-77
2021/05/10 08:56:00;;;;;;;6.00;4.55;;;;;;;25.65;40.44;100583.13;5093519;28;20497;-74
2021/05/10 08:59:05;;;;;;;9.23;5.82;;;;;;;25.05;42.14;100571.81;5091335;28;20044;-75
2021/05/10 09:02:10;;;;;;;12.55;7.10;;;;;;;24.74;44.48;100568.22;5092749;28;20054;-76
2021/05/10 09:05:17;;;;;;;11.10;6.40;;;;;;;24.90;43.48;100571.28;5077947;28;20047;-77
2021/05/10 09:08:21;;;;;;;9.05;5.82;;;;;;;24.76;44.31;100566.06;5085125;28;20051;-75
2021/05/10 09:11:27;;;;;;;17.08;6.13;;;;;;;24.29;45.70;100560.03;5091823;28;20051;-76
2021/05/10 09:14:36;;;;;;;9.45;5.07;;;;;;;24.26;45.93;100560.44;5085596;28;20067;-77
2021/05/10 09:17:56;;;;;;;8.45;4.80;;;;;;;23.92;46.17;100555.28;5093444;28;20047;-78
2021/05/10 09:21:16;;;;;;;7.60;4.90;;;;;;;23.84;47.23;100553.63;5094185;28;20055;-75
2021/05/10 09:24:24;;;;;;;10.60;5.63;;;;;;;23.34;48.87;100557.06;5093988;28;20055;-77
2021/05/10 09:27:30;;;;;;;7.68;5.00;;;;;;;23.62;48.63;100554.09;5093369;28;20051;-78
2021/05/10 09:30:36;;;;;;;10.60;5.95;;;;;;;23.66;48.44;100542.50;5060143;28;20161;-77
2021/05/10 09:33:47;;;;;;;10.02;5.65;;;;;;;23.73;48.34;100536.97;5058960;28;20062;-77
2021/05/10 09:37:02;;;;;;;7.53;5.57;;;;;;;23.53;48.18;100544.44;5059386;28;20047;-78
2021/05/10 09:40:07;;;;;;;8.13;5.70;;;;;;;23.81;48.51;100550.47;5071599;28;20510;-77
2021/05/10 09:43:14;;;;;;;9.20;5.47;;;;;;;23.98;47.81;100556.31;5059227;28;20059;-74
2021/05/10 09:46:19;;;;;;;12.55;5.60;;;;;;;24.25;47.65;100568.88;5059321;28;20055;-79
2021/05/10 09:49:42;;;;;;;12.65;4.97;;;;;;;24.65;47.21;100567.63;5060516;28;20048;-80
2021/05/10 09:52:54;;;;;;;12.63;5.07;;;;;;;24.22;47.12;100580.31;5061344;28;20059;-81
2021/05/10 09:55:59;;;;;;;7.50;4.50;;;;;;;24.03;47.79;100561.97;5061053;28;20059;-81
2021/05/10 09:59:07;;;;;;;8.18;4.38;;;;;;;23.95;50.15;100541.97;5061184;28;20052;-81
2021/05/10 10:02:33;;;;;;;8.60;4.80;;;;;;;23.89;49.36;100536.53;5060799;28;20056;-78
2021/05/10 10:05:37;;;;;;;8.13;4.65;;;;;;;23.93;49.36;100527.63;5073610;28;20051;-79
2021/05/10 10:08:44;;;;;;;8.23;4.25;;;;;;;24.44;49.02;100524.06;5072233;28;20052;-78
2021/05/10 10:11:49;;;;;;;8.35;4.40;;;;;;;24.22;49.29;100526.25;5072547;28;20062;-80
2021/05/10 10:14:54;;;;;;;10.45;4.30;;;;;;;23.91;49.29;100529.75;5072452;28;20476;-79
2021/05/10 10:18:01;;;;;;;8.27;4.50;;;;;;;24.03;50.36;100518.94;5072729;28;20048;-77
2021/05/10 10:21:08;;;;;;;8.75;4.30;;;;;;;23.97;49.47;100516.25;5073342;28;20052;-79
2021/05/10 10:24:14;;;;;;;9.95;4.40;;;;;;;24.09;48.30;100520.88;5072995;28;20139;-80
2021/05/10 10:27:20;;;;;;;7.40;3.25;;;;;;;24.09;48.64;100529.09;5072470;28;20051;-80
2021/05/10 10:30:26;;;;;;;7.28;3.60;;;;;;;24.06;48.84;100514.94;5083912;28;20379;-80
2021/05/10 10:33:45;;;;;;;6.85;4.05;;;;;;;24.12;49.84;100525.88;5073380;28;20052;-76
2021/05/10 10:36:57;;;;;;;8.07;3.72;;;;;;;24.29;50.35;100516.13;5072852;28;20095;-74
2021/05/10 10:40:14;;;;;;;7.85;3.90;;;;;;;24.11;50.45;100505.03;5073131;28;20119;-77
2021/05/10 10:43:23;;;;;;;12.60;3.90;;;;;;;24.29;49.78;100502.41;5072839;28;20067;-77
2021/05/10 10:46:30;;;;;;;7.38;4.05;;;;;;;24.33;50.33;100516.50;5072304;28;20055;-75
2021/05/10 10:49:43;;;;;;;5.35;3.60;;;;;;;24.06;50.39;100513.03;5073042;28;20047;-76
2021/05/10 10:52:52;;;;;;;7.50;3.80;;;;;;;24.08;49.97;100510.09;5072827;28;20125;-78
2021/05/10 10:56:05;;;;;;;5.90;3.63;;;;;;;24.24;50.08;100501.38;5073148;28;20498;-79
2021/05/10 10:59:31;;;;;;;9.40;3.15;;;;;;;24.25;49.69;100500.28;5073463;28;20064;-77
2021/05/10 11:02:43;;;;;;;8.07;3.28;;;;;;;24.14;49.44;100503.75;5075725;28;20497;-79
2021/05/10 11:05:48;;;;;;;8.70;3.57;;;;;;;24.12;49.45;100494.91;5076671;28;20048;-78
2021/05/10 11:08:55;;;;;;;7.28;4.10;;;;;;;24.00;50.02;100493.88;5076534;28;20475;-78
2021/05/10 11:11:59;;;;;;;8.93;3.47;;;;;;;24.33;49.94;100487.16;5076467;28;20118;-78
2021/05/10 11:15:04;;;;;;;6.25;3.13;;;;;;;24.34;49.36;100474.28;5075623;28;20051;-80
2021/05/10 11:18:09;;;;;;;6.65;3.67;;;;;;;24.15;49.52;100465.09;5076207;28;20067;-79
2021/05/10 11:21:22;;;;;;;6.10;3.20;;;;;;;24.24;50.13;100473.94;5076261;28;20051;-77
2021/05/10 11:24:32;;;;;;;5.80;3.33;;;;;;;24.19;48.39;100468.25;5076364;28;20518;-78
2021/05/10 11:27:36;;;;;;;8.23;3.53;;;;;;;24.10;49.37;100456.69;5087025;28;20044;-78
2021/05/10 11:31:02;;;;;;;6.20;3.35;;;;;;;24.31;48.29;100459.13;5075318;28;20051;-75
2021/05/10 11:34:10;;;;;;;6.05;3.05;;;;;;;24.47;48.50;100463.22;5075739;28;20140;-77
2021/05/10 11:37:23;;;;;;;7.63;3.17;;;;;;;24.25;48.89;100453.66;5076151;28;20043;-80
2021/05/10 11:40:28;;;;;;;6.68;3.47;;;;;;;24.49;48.87;100439.16;5086490;28;20048;-79
2021/05/10 11:43:38;;;;;;;9.40;3.75;;;;;;;24.52;49.01;100438.69;5075579;28;20067;-79
2021/05/10 11:46:47;;;;;;;10.43;3.70;;;;;;;24.55;48.89;100436.34;5075750;28;20332;-78
2021/05/10 11:49:51;;;;;;;12.85;3.00;;;;;;;24.76;48.90;100437.03;5075983;28;20060;-79
2021/05/10 11:53:05;;;;;;;9.40;3.33;;;;;;;24.69;47.67;100434.31;5075456;28;20060;-79
2021/05/10 11:56:10;;;;;;;10.38;3.53;;;;;;;24.72;48.53;100431.13;5075577;28;20210;-80
2021/05/10 11:59:47;;;;;;;8.93;3.45;;;;;;;24.96;48.46;100423.97;5075396;28;20390;-80
2021/05/10 12:02:51;;;;;;;5.80;3.55;;;;;;;24.95;46.70;100439.63;5075471;28;20056;-80
2021/05/10 12:05:55;;;;;;;7.82;2.88;;;;;;;25.13;48.35;100436.06;5086169;28;20059;-78
2021/05/10 12:09:00;;;;;;;7.82;3.00;;;;;;;25.32;47.20;100420.41;5086086;28;20055;-77
2021/05/10 12:12:13;;;;;;;9.02;3.17;;;;;;;25.62;46.93;100429.59;5073374;28;20052;-77
2021/05/10 12:15:25;;;;;;;6.68;2.80;;;;;;;25.62;45.91;100413.97;5085634;28;20051;-78
2021/05/10 12:18:29;;;;;;;8.13;2.90;;;;;;;25.69;46.80;100416.63;5073872;28;20043;-78
2021/05/10 12:21:33;;;;;;;7.78;2.95;;;;;;;25.68;46.36;100412.16;5085936;28;20391;-76
2021/05/10 12:24:55;;;;;;;5.88;3.00;;;;;;;25.65;46.43;100401.66;5074890;28;20047;-78
2021/05/10 12:28:03;;;;;;;7.35;3.28;;;;;;;25.56;46.61;100403.03;5074758;28;20060;-78
2021/05/10 12:31:08;;;;;;;9.52;3.10;;;;;;;25.44;46.17;100393.84;5074711;28;20048;-79
2021/05/10 12:34:12;;;;;;;6.70;2.80;;;;;;;25.15;46.43;100389.97;5073815;28;20059;-78
2021/05/10 12:37:16;;;;;;;8.48;3.30;;;;;;;25.12;44.99;100379.44;5074593;28;20056;-78
2021/05/10 12:40:23;;;;;;;9.52;3.17;;;;;;;25.00;46.30;100382.09;5074553;28;20059;-78
2021/05/10 12:43:29;;;;;;;7.35;3.10;;;;;;;25.01;46.23;100382.94;5073723;28;20055;-76
2021/05/10 12:46:44;;;;;;;7.78;3.22;;;;;;;25.08;46.80;100379.03;5074709;28;20047;-76
2021/05/10 12:49:48;;;;;;;8.10;3.17;;;;;;;25.27;46.83;100363.41;5073833;28;20060;-75
2021/05/10 12:52:53;;;;;;;8.13;3.42;;;;;;;25.39;47.39;100368.94;5074369;28;20048;-77
2021/05/10 12:56:02;;;;;;;4.90;2.78;;;;;;;25.51;47.17;100358.88;5074901;28;20051;-80
2021/05/10 12:59:07;;;;;;;7.05;3.30;;;;;;;25.65;46.41;100357.66;5074436;28;20044;-79
2021/05/10 13:02:19;;;;;;;8.18;3.33;;;;;;;25.68;46.82;100355.25;5074564;28;20399;-75
2021/05/10 13:05:40;;;;;;;8.60;3.75;;;;;;;25.70;46.94;100353.13;5074307;28;20056;-76
2021/05/10 13:08:48;;;;;;;6.85;3.17;;;;;;;25.77;46.58;100328.28;5074561;28;20056;-76
2021/05/10 13:12:01;;;;;;;7.85;3.22;;;;;;;25.84;46.22;100329.88;5074483;28;20055;-75
2021/05/10 13:15:14;;;;;;;8.60;2.85;;;;;;;25.94;46.90;100321.06;5073706;28;20379;-81
2021/05/10 13:32:07;;;;;;;6.93;2.25;;;;;;;26.03;44.06;100324.28;5074044;28;20482;-75
2021/05/10 13:35:20;;;;;;;8.93;2.60;;;;;;;25.95;44.25;100327.41;5073353;28;20067;-80
2021/05/10 13:38:24;;;;;;;4.88;2.03;;;;;;;26.03;44.73;100316.03;5073207;28;20051;-79
2021/05/10 13:41:42;;;;;;;5.70;2.60;;;;;;;26.05;44.80;100308.38;5073646;28;20056;-77
2021/05/10 13:44:48;;;;;;;5.38;1.90;;;;;;;26.06;44.46;100308.16;5073944;28;20055;-79
2021/05/10 13:47:53;;;;;;;5.75;2.13;;;;;;;26.09;44.85;100307.69;5073899;28;20050;-80
2021/05/10 13:50:57;;;;;;;5.53;1.92;;;;;;;26.17;44.58;100285.34;5073706;28;20487;-81
2021/05/10 13:54:02;;;;;;;8.98;1.77;;;;;;;26.19;43.74;100285.13;5073762;28;20479;-80
2021/05/10 13:57:06;;;;;;;9.00;2.15;;;;;;;26.42;43.96;100272.19;5071340;28;20048;-79
2021/05/10 14:00:11;;;;;;;7.53;2.28;;;;;;;26.61;44.91;100269.31;5072860;28;20055;-80
2021/05/10 14:03:15;;;;;;;6.95;1.90;;;;;;;26.57;43.96;100262.59;5073620;28;20055;-80
2021/05/10 14:06:20;;;;;;;5.88;1.95;;;;;;;26.59;43.70;100258.53;5073739;28;20047;-79
2021/05/10 14:09:24;;;;;;;4.75;2.22;;;;;;;26.54;42.97;100249.34;5073696;28;20075;-78
2021/05/10 14:12:28;;;;;;;4.43;1.50;;;;;;;26.39;43.61;100250.63;5073731;28;20051;-76
2021/05/10 14:15:34;;;;;;;5.78;1.60;;;;;;;26.26;44.41;100247.31;5072813;28;20059;-76
2021/05/10 14:18:46;;;;;;;5.85;1.73;;;;;;;26.11;43.90;100247.78;5073688;28;20044;-79
2021/05/10 14:22:03;;;;;;;3.60;2.10;;;;;;;26.13;44.48;100244.78;5073633;28;20056;-78
2021/05/10 14:25:09;;;;;;;8.00;2.10;;;;;;;26.08;43.69;100228.13;5073402;28;20051;-77
2021/05/10 14:28:13;;;;;;;8.35;2.00;;;;;;;26.22;43.65;100226.84;5073509;28;20486;-79
2021/05/10 14:31:17;;;;;;;7.97;2.30;;;;;;;26.33;43.56;100242.50;5073608;28;20044;-76
2021/05/10 14:34:22;;;;;;;5.30;1.80;;;;;;;26.41;42.46;100225.66;5073453;28;20047;-77
2021/05/10 14:37:26;;;;;;;5.00;1.80;;;;;;;26.36;43.65;100220.03;5077370;28;20072;-74
2021/05/10 14:40:31;;;;;;;9.63;1.75;;;;;;;26.40;42.58;100224.81;5065470;28;20387;-78
2021/05/10 14:43:39;;;;;;;8.93;2.38;;;;;;;26.41;43.71;100223.75;5076583;28;20056;-79
2021/05/10 14:46:43;;;;;;;7.55;1.80;;;;;;;26.42;43.60;100219.88;5076871;28;20056;-79